Time;durP1;ratioP1;P1;durP2;ratioP2;P2;SDS_P1;SDS_P2;PMS_P1;PMS_P2;Temp;Humidity;BMP_temperature;BMP_pressure;BME280_temperature;BME280_humidity;BME280_pressure;Samples;Min_cycle;Max_cycle;Signal;HPM_P1;HPM_P2
2023/09/22 00:00:26;;;;;;;2.53;1.45;;;;;;;;;;5912407;28;20154;-75
2023/09/22 00:03:17;;;;;;;1.15;0.95;;;;;;;;;;5910749;28;20064;-74
2023/09/22 00:06:07;;;;;;;2.17;1.50;;;;;;;;;;5912260;28;20040;-75
2023/09/22 00:08:58;;;;;;;9.95;1.13;;;;;;;;;;5912920;28;20052;-75
2023/09/22 00:11:49;;;;;;;2.75;1.20;;;;;;;;;;5912289;28;20044;-74
2023/09/22 00:14:40;;;;;;;3.28;2.15;;;;;;;;;;5912156;28;20041;-74
2023/09/22 00:17:35;;;;;;;2.03;1.35;;;;;;;;;;5912313;28;20036;-75
2023/09/22 00:20:26;;;;;;;1.45;1.10;;;;;;;;;;5894391;28;20047;-74
2023/09/22 00:23:17;;;;;;;1.20;1.00;;;;;;;;;;5912091;28;20055;-75
2023/09/22 00:26:07;;;;;;;1.38;0.85;;;;;;;;;;5911913;28;20400;-75
2023/09/22 00:28:58;;;;;;;2.53;1.45;;;;;;;;;;5912705;28;20040;-74
2023/09/22 00:31:49;;;;;;;3.22;1.48;;;;;;;;;;5911658;28;20462;-76
2023/09/22 00:34:40;;;;;;;1.75;1.02;;;;;;;;;;5911690;28;20052;-76
2023/09/22 00:37:31;;;;;;;1.45;1.27;;;;;;;;;;5911845;28;20055;-74
2023/09/22 00:40:21;;;;;;;1.27;0.90;;;;;;;;;;5911655;28;20494;-74
2023/09/22 00:43:12;;;;;;;1.00;0.90;;;;;;;;;;5911852;28;20491;-74
2023/09/22 00:46:03;;;;;;;7.40;1.60;;;;;;;;;;5877361;28;20041;-75
2023/09/22 00:48:57;;;;;;;1.23;1.13;;;;;;;;;;5893865;28;20048;-74
2023/09/22 00:51:48;;;;;;;2.50;1.50;;;;;;;;;;5893489;28;20044;-75
2023/09/22 00:54:39;;;;;;;1.88;1.15;;;;;;;;;;5911526;28;20048;-75
2023/09/22 00:57:30;;;;;;;14.00;1.48;;;;;;;;;;5893326;28;20052;-75
2023/09/22 01:00:22;;;;;;;1.58;1.40;;;;;;;;;;5910835;28;20054;-74
2023/09/22 01:03:14;;;;;;;8.73;1.88;;;;;;;;;;5893448;28;20194;-74
2023/09/22 01:06:09;;;;;;;8.20;1.63;;;;;;;;;;5885681;28;20040;-74
2023/09/22 01:09:05;;;;;;;1.27;1.00;;;;;;;;;;5893139;28;20075;-74
2023/09/22 01:11:56;;;;;;;1.92;1.50;;;;;;;;;;5911147;28;20047;-75
2023/09/22 01:14:47;;;;;;;9.07;1.80;;;;;;;;;;5902646;28;20048;-76
2023/09/22 01:17:38;;;;;;;12.75;1.40;;;;;;;;;;5910672;28;20075;-72
2023/09/22 01:20:29;;;;;;;3.50;1.58;;;;;;;;;;5910902;28;20476;-74
2023/09/22 01:23:20;;;;;;;1.95;1.50;;;;;;;;;;5910614;28;20047;-74
2023/09/22 01:26:11;;;;;;;1.70;1.05;;;;;;;;;;5910705;28;20131;-73
2023/09/22 01:29:01;;;;;;;5.70;1.45;;;;;;;;;;5910820;28;20491;-72
2023/09/22 01:31:52;;;;;;;1.10;1.00;;;;;;;;;;5910968;28;20044;-73
2023/09/22 01:34:43;;;;;;;1.58;0.77;;;;;;;;;;5910263;28;20426;-73
2023/09/22 01:37:39;;;;;;;2.97;1.65;;;;;;;;;;5909195;28;20059;-74
2023/09/22 01:40:34;;;;;;;1.20;1.10;;;;;;;;;;5893722;28;20499;-74
2023/09/22 01:43:25;;;;;;;3.90;1.58;;;;;;;;;;5910724;28;20058;-73
2023/09/22 01:46:16;;;;;;;1.48;1.20;;;;;;;;;;5910433;28;20491;-73
2023/09/22 01:49:06;;;;;;;1.17;1.05;;;;;;;;;;5910353;28;20040;-72
2023/09/22 01:51:57;;;;;;;1.40;1.00;;;;;;;;;;5910913;28;20044;-72
2023/09/22 01:54:48;;;;;;;2.42;1.38;;;;;;;;;;5910347;28;20131;-73
2023/09/22 01:57:39;;;;;;;4.25;1.63;;;;;;;;;;5910022;28;20126;-72
2023/09/22 02:00:33;;;;;;;3.08;1.23;;;;;;;;;;5910256;28;20127;-72
2023/09/22 02:03:24;;;;;;;4.82;1.33;;;;;;;;;;5909879;28;20044;-72
2023/09/22 02:06:15;;;;;;;1.60;1.13;;;;;;;;;;5910081;28;20131;-72
2023/09/22 02:09:06;;;;;;;1.30;1.17;;;;;;;;;;5910045;28;20040;-72
2023/09/22 02:11:57;;;;;;;2.30;1.42;;;;;;;;;;5910644;28;20050;-72
2023/09/22 02:14:48;;;;;;;1.83;1.25;;;;;;;;;;5909776;28;20048;-71
2023/09/22 02:17:42;;;;;;;1.40;1.20;;;;;;;;;;5903311;28;20040;-71
2023/09/22 02:20:33;;;;;;;1.83;1.25;;;;;;;;;;5894788;28;20045;-72
2023/09/22 02:23:26;;;;;;;1.00;0.75;;;;;;;;;;5914863;28;20041;-73
2023/09/22 02:26:17;;;;;;;2.50;1.58;;;;;;;;;;5914883;28;20044;-72
2023/09/22 02:29:08;;;;;;;5.68;1.83;;;;;;;;;;5914819;28;20049;-72
2023/09/22 02:31:58;;;;;;;1.45;1.30;;;;;;;;;;5915117;28;20052;-72
2023/09/22 02:34:50;;;;;;;2.03;1.25;;;;;;;;;;5914208;28;20041;-73
2023/09/22 02:37:41;;;;;;;3.08;1.48;;;;;;;;;;5914416;28;20048;-72
2023/09/22 02:40:32;;;;;;;2.05;0.95;;;;;;;;;;5914311;28;20036;-72
2023/09/22 02:43:23;;;;;;;1.10;0.82;;;;;;;;;;5914600;28;20040;-73
2023/09/22 02:46:14;;;;;;;7.03;1.52;;;;;;;;;;5913899;28;20041;-72
2023/09/22 02:49:05;;;;;;;2.10;0.95;;;;;;;;;;5896391;28;20447;-73
2023/09/22 02:51:56;;;;;;;2.35;0.98;;;;;;;;;;5912952;28;20079;-72
2023/09/22 02:54:54;;;;;;;1.40;1.10;;;;;;;;;;5926966;28;20044;-73
2023/09/22 02:57:48;;;;;;;1.20;1.10;;;;;;;;;;5929254;28;20108;-72
2023/09/22 03:00:45;;;;;;;12.18;1.30;;;;;;;;;;5915855;28;20055;-71
2023/09/22 03:03:37;;;;;;;2.80;1.05;;;;;;;;;;5913753;28;20041;-73
2023/09/22 03:06:28;;;;;;;2.67;2.00;;;;;;;;;;5912604;28;20052;-72
2023/09/22 03:09:19;;;;;;;2.88;1.00;;;;;;;;;;5913424;28;20114;-73
2023/09/22 03:12:10;;;;;;;1.95;1.10;;;;;;;;;;5913836;28;20048;-71
2023/09/22 03:15:01;;;;;;;1.98;1.02;;;;;;;;;;5913803;28;20048;-72
2023/09/22 03:17:52;;;;;;;1.40;1.02;;;;;;;;;;5914186;28;20048;-71
2023/09/22 03:20:42;;;;;;;1.25;0.88;;;;;;;;;;5913755;28;20070;-72
2023/09/22 03:23:33;;;;;;;1.50;1.27;;;;;;;;;;5913488;28;20099;-72
2023/09/22 03:26:24;;;;;;;6.22;1.80;;;;;;;;;;5913632;28;20066;-72
2023/09/22 03:29:15;;;;;;;1.30;1.20;;;;;;;;;;5913451;28;20066;-71
2023/09/22 03:32:06;;;;;;;1.40;1.25;;;;;;;;;;5913137;28;20049;-72
2023/09/22 03:34:57;;;;;;;1.27;0.93;;;;;;;;;;5905727;28;20537;-72
2023/09/22 03:37:48;;;;;;;3.15;1.25;;;;;;;;;;5913184;28;20329;-72
2023/09/22 03:40:41;;;;;;;1.02;0.93;;;;;;;;;;5913252;28;20052;-72
2023/09/22 03:43:33;;;;;;;5.25;1.52;;;;;;;;;;5913280;28;20041;-72
2023/09/22 03:46:24;;;;;;;1.95;1.15;;;;;;;;;;5913017;28;20049;-72
2023/09/22 03:49:15;;;;;;;1.02;0.88;;;;;;;;;;5913132;28;20499;-73
2023/09/22 03:52:06;;;;;;;2.50;1.15;;;;;;;;;;5913119;28;20071;-72
2023/09/22 03:54:56;;;;;;;2.25;1.30;;;;;;;;;;5905174;28;20041;-72
2023/09/22 03:57:47;;;;;;;1.95;1.10;;;;;;;;;;5912921;28;20055;-72
2023/09/22 04:00:38;;;;;;;3.58;1.77;;;;;;;;;;5912371;28;20040;-72
2023/09/22 04:03:29;;;;;;;9.02;1.50;;;;;;;;;;5912686;28;20171;-71
2023/09/22 04:06:20;;;;;;;5.80;1.73;;;;;;;;;;5912587;28;20118;-73
2023/09/22 04:09:11;;;;;;;2.30;1.33;;;;;;;;;;5912757;28;20147;-71
2023/09/22 04:12:02;;;;;;;2.92;2.05;;;;;;;;;;5912542;28;20063;-72
2023/09/22 04:14:53;;;;;;;2.70;1.63;;;;;;;;;;5912718;28;20557;-72
2023/09/22 04:17:46;;;;;;;2.10;1.33;;;;;;;;;;5894697;28;20464;-72
2023/09/22 04:20:37;;;;;;;1.95;1.70;;;;;;;;;;5911868;28;20360;-72
2023/09/22 04:23:28;;;;;;;2.72;1.10;;;;;;;;;;5910866;28;20040;-71
2023/09/22 04:26:27;;;;;;;2.85;1.60;;;;;;;;;;5892572;28;20135;-73
2023/09/22 04:29:18;;;;;;;3.75;2.17;;;;;;;;;;5903633;28;20040;-73
2023/09/22 04:32:12;;;;;;;2.00;1.80;;;;;;;;;;5894749;28;20048;-71
2023/09/22 04:35:06;;;;;;;3.72;1.50;;;;;;;;;;5912011;28;20043;-73
2023/09/22 04:37:57;;;;;;;3.08;1.83;;;;;;;;;;5904018;28;20048;-72
2023/09/22 04:40:48;;;;;;;3.22;1.33;;;;;;;;;;5911696;28;20052;-72
2023/09/22 04:43:39;;;;;;;3.35;1.48;;;;;;;;;;5910548;28;20472;-71
2023/09/22 04:46:29;;;;;;;1.70;1.15;;;;;;;;;;5911687;28;20139;-72
2023/09/22 04:49:20;;;;;;;3.28;2.13;;;;;;;;;;5911621;28;20055;-72
2023/09/22 04:52:11;;;;;;;2.83;1.80;;;;;;;;;;5893772;28;20048;-72
2023/09/22 04:55:02;;;;;;;1.88;1.30;;;;;;;;;;5911432;28;20049;-72
2023/09/22 04:57:53;;;;;;;7.07;2.05;;;;;;;;;;5911428;28;20090;-73
2023/09/22 05:00:54;;;;;;;4.00;2.10;;;;;;;;;;5916729;28;20055;-71
2023/09/22 05:03:45;;;;;;;5.10;1.83;;;;;;;;;;5934641;28;20048;-72
2023/09/22 05:06:36;;;;;;;3.42;1.52;;;;;;;;;;5934674;28;20040;-72
2023/09/22 05:09:27;;;;;;;4.10;1.35;;;;;;;;;;5922275;28;20498;-72
2023/09/22 05:12:18;;;;;;;2.35;2.08;;;;;;;;;;5921081;28;20127;-71
2023/09/22 05:15:09;;;;;;;5.07;1.88;;;;;;;;;;5915402;28;20037;-72
2023/09/22 05:18:00;;;;;;;1.42;1.30;;;;;;;;;;5914228;28;20470;-70
2023/09/22 05:20:51;;;;;;;6.07;1.95;;;;;;;;;;5921411;28;20044;-72
2023/09/22 05:23:41;;;;;;;3.00;1.67;;;;;;;;;;5931458;28;20098;-71
2023/09/22 05:26:32;;;;;;;4.75;2.03;;;;;;;;;;5916545;28;20044;-72
2023/09/22 05:29:23;;;;;;;6.63;2.38;;;;;;;;;;5934544;28;20464;-73
2023/09/22 05:32:14;;;;;;;2.05;1.35;;;;;;;;;;5924880;28;20044;-73
2023/09/22 05:35:05;;;;;;;1.42;1.23;;;;;;;;;;5910811;28;20538;-72
2023/09/22 05:37:56;;;;;;;6.78;1.85;;;;;;;;;;5903056;28;20490;-71
2023/09/22 05:40:47;;;;;;;1.33;1.17;;;;;;;;;;5905407;28;20044;-71
2023/09/22 05:43:38;;;;;;;4.07;1.50;;;;;;;;;;5910169;28;20044;-71
2023/09/22 05:46:31;;;;;;;5.90;1.92;;;;;;;;;;5910344;28;20392;-72
2023/09/22 05:49:22;;;;;;;1.67;1.45;;;;;;;;;;5910595;28;20044;-71
2023/09/22 05:52:13;;;;;;;3.97;1.70;;;;;;;;;;5910173;28;20048;-71
2023/09/22 05:55:04;;;;;;;6.18;2.08;;;;;;;;;;5892133;28;20040;-71
2023/09/22 05:57:55;;;;;;;3.05;1.77;;;;;;;;;;5907858;28;20040;-73
2023/09/22 06:00:46;;;;;;;3.92;1.73;;;;;;;;;;5908194;28;20040;-72
2023/09/22 06:03:39;;;;;;;1.30;1.20;;;;;;;;;;5908909;28;20507;-72
2023/09/22 06:06:32;;;;;;;2.28;1.45;;;;;;;;;;5909297;28;20373;-72
2023/09/22 06:09:23;;;;;;;1.17;1.05;;;;;;;;;;5909401;28;20483;-71
2023/09/22 06:12:13;;;;;;;4.28;2.17;;;;;;;;;;5892617;28;20041;-71
2023/09/22 06:15:07;;;;;;;3.00;1.70;;;;;;;;;;5910238;28;20522;-72
2023/09/22 06:17:58;;;;;;;2.42;1.48;;;;;;;;;;5910629;28;20044;-72
2023/09/22 06:20:52;;;;;;;2.22;1.38;;;;;;;;;;5909822;28;20040;-72
2023/09/22 06:23:43;;;;;;;2.88;1.67;;;;;;;;;;5909781;28;20045;-72
2023/09/22 06:26:33;;;;;;;18.38;2.10;;;;;;;;;;5909969;28;20047;-72
2023/09/22 06:29:24;;;;;;;4.03;2.10;;;;;;;;;;5909908;28;20040;-72
2023/09/22 06:32:17;;;;;;;2.83;1.83;;;;;;;;;;5909706;28;20072;-72
2023/09/22 06:35:11;;;;;;;1.58;1.40;;;;;;;;;;5909864;28;20045;-73
2023/09/22 06:38:03;;;;;;;1.25;1.15;;;;;;;;;;5892581;28;20484;-72
2023/09/22 06:40:55;;;;;;;8.52;1.70;;;;;;;;;;5910565;28;20049;-70
2023/09/22 06:43:49;;;;;;;3.10;1.95;;;;;;;;;;5910499;28;20045;-71
2023/09/22 06:46:49;;;;;;;5.05;1.67;;;;;;;;;;5909908;28;20062;-72
2023/09/22 06:49:40;;;;;;;4.13;1.88;;;;;;;;;;5909895;28;20048;-74
2023/09/22 06:52:31;;;;;;;5.75;1.63;;;;;;;;;;5909749;28;20492;-72
2023/09/22 06:55:21;;;;;;;3.38;1.85;;;;;;;;;;5909728;28;20044;-73
2023/09/22 06:58:13;;;;;;;5.40;1.58;;;;;;;;;;5909400;28;20044;-72
2023/09/22 07:01:14;;;;;;;8.77;1.90;;;;;;;;;;5909719;28;20060;-72
2023/09/22 07:04:09;;;;;;;1.30;1.20;;;;;;;;;;5909838;28;20049;-72
2023/09/22 07:07:01;;;;;;;2.20;1.23;;;;;;;;;;5912628;28;20060;-72
2023/09/22 07:09:52;;;;;;;1.90;0.80;;;;;;;;;;5913845;28;20045;-72
2023/09/22 07:12:43;;;;;;;1.92;1.15;;;;;;;;;;5913601;28;20169;-72
2023/09/22 07:15:34;;;;;;;2.15;1.15;;;;;;;;;;5913479;28;20052;-73
2023/09/22 07:18:25;;;;;;;3.42;1.42;;;;;;;;;;5913597;28;20414;-73
2023/09/22 07:21:16;;;;;;;1.65;1.02;;;;;;;;;;5889637;28;20115;-72
2023/09/22 07:24:07;;;;;;;2.35;0.80;;;;;;;;;;5913441;28;20044;-72
2023/09/22 07:26:58;;;;;;;1.83;0.85;;;;;;;;;;5913883;28;20048;-72
2023/09/22 07:29:50;;;;;;;1.80;1.10;;;;;;;;;;5913570;28;20056;-72
2023/09/22 07:32:41;;;;;;;1.33;1.00;;;;;;;;;;5895580;28;20044;-71
2023/09/22 07:35:32;;;;;;;3.25;1.08;;;;;;;;;;5913219;28;20044;-72
2023/09/22 07:38:23;;;;;;;0.95;0.25;;;;;;;;;;5895561;28;20048;-71
2023/09/22 07:41:14;;;;;;;7.55;1.15;;;;;;;;;;5913360;28;20055;-72
2023/09/22 07:44:05;;;;;;;3.95;1.30;;;;;;;;;;5904912;28;20036;-72
2023/09/22 07:47:00;;;;;;;2.00;0.65;;;;;;;;;;5913557;28;20063;-72
2023/09/22 07:49:54;;;;;;;0.95;0.75;;;;;;;;;;5904877;28;20079;-72
2023/09/22 07:52:45;;;;;;;1.10;0.43;;;;;;;;;;5911510;28;20059;-73
2023/09/22 07:55:38;;;;;;;0.40;0.30;;;;;;;;;;5912748;28;20452;-73
2023/09/22 07:58:29;;;;;;;1.88;0.98;;;;;;;;;;5912579;28;20052;-73
2023/09/22 08:01:21;;;;;;;0.63;0.50;;;;;;;;;;5895299;28;20051;-70
2023/09/22 08:04:13;;;;;;;1.77;0.38;;;;;;;;;;5912728;28;20048;-72
2023/09/22 08:07:05;;;;;;;2.60;0.55;;;;;;;;;;5912463;28;20049;-72
2023/09/22 08:09:56;;;;;;;0.55;0.43;;;;;;;;;;5912912;28;20062;-72
2023/09/22 08:12:47;;;;;;;1.17;0.60;;;;;;;;;;5912407;28;20396;-72
2023/09/22 08:15:38;;;;;;;3.30;1.23;;;;;;;;;;5894820;28;20044;-72
2023/09/22 08:18:34;;;;;;;0.75;0.43;;;;;;;;;;5912404;28;20480;-72
2023/09/22 08:21:25;;;;;;;0.70;0.47;;;;;;;;;;5912301;28;20052;-72
2023/09/22 08:24:16;;;;;;;8.80;1.30;;;;;;;;;;5912259;28;20127;-71
2023/09/22 08:27:08;;;;;;;1.33;0.88;;;;;;;;;;5912246;28;20045;-72
2023/09/22 08:29:59;;;;;;;1.83;0.47;;;;;;;;;;5894922;28;20068;-72
2023/09/22 08:32:49;;;;;;;2.13;0.95;;;;;;;;;;5912176;28;20054;-72
2023/09/22 08:35:41;;;;;;;4.60;0.85;;;;;;;;;;5910701;28;20444;-72
2023/09/22 08:38:51;;;;;;;2.90;1.05;;;;;;;;;;5912172;28;20036;-72
2023/09/22 08:41:43;;;;;;;4.95;1.45;;;;;;;;;;5911672;28;20048;-71
2023/09/22 08:44:34;;;;;;;2.85;1.33;;;;;;;;;;5911572;28;20064;-74
2023/09/22 08:47:25;;;;;;;1.25;0.65;;;;;;;;;;5911712;28;20510;-71
2023/09/22 08:50:19;;;;;;;0.52;0.45;;;;;;;;;;5893908;28;20072;-70
2023/09/22 08:53:11;;;;;;;1.48;0.77;;;;;;;;;;5893908;28;20045;-72
2023/09/22 08:56:04;;;;;;;0.50;0.50;;;;;;;;;;5911581;28;20045;-71
2023/09/22 08:58:55;;;;;;;0.35;0.35;;;;;;;;;;5911973;28;20413;-73
2023/09/22 09:01:47;;;;;;;4.28;1.48;;;;;;;;;;5911435;28;20495;-70
2023/09/22 09:04:39;;;;;;;1.23;0.40;;;;;;;;;;5889984;28;20049;-72
2023/09/22 09:07:31;;;;;;;0.93;0.57;;;;;;;;;;5908961;28;20047;-71
2023/09/22 09:10:34;;;;;;;5.00;0.77;;;;;;;;;;5905288;28;20059;-72
2023/09/22 09:13:27;;;;;;;1.98;1.05;;;;;;;;;;5909633;28;20040;-72
2023/09/22 09:16:30;;;;;;;0.93;0.82;;;;;;;;;;5893566;28;20058;-72
2023/09/22 09:19:22;;;;;;;0.98;0.73;;;;;;;;;;5903002;28;20404;-70
2023/09/22 09:22:14;;;;;;;3.58;0.60;;;;;;;;;;5910783;28;20048;-72
2023/09/22 09:25:09;;;;;;;4.68;0.95;;;;;;;;;;5911047;28;20194;-72
2023/09/22 09:28:02;;;;;;;2.10;0.80;;;;;;;;;;5904564;28;20072;-73
2023/09/22 09:30:59;;;;;;;5.60;0.60;;;;;;;;;;5908390;28;20056;-72
2023/09/22 09:33:54;;;;;;;2.35;0.82;;;;;;;;;;5909489;28;20045;-71
2023/09/22 09:36:44;;;;;;;2.28;0.88;;;;;;;;;;5893419;28;20048;-70
2023/09/22 09:39:57;;;;;;;0.77;0.60;;;;;;;;;;5910363;28;20383;-76
2023/09/22 09:42:50;;;;;;;0.75;0.45;;;;;;;;;;5910465;28;20048;-72
2023/09/22 09:45:49;;;;;;;0.77;0.43;;;;;;;;;;5910687;28;20042;-71
2023/09/22 09:48:42;;;;;;;2.63;0.95;;;;;;;;;;5910722;28;20056;-72
2023/09/22 09:51:39;;;;;;;0.95;0.47;;;;;;;;;;5893053;28;20049;-71
2023/09/22 09:54:33;;;;;;;3.42;0.98;;;;;;;;;;5910523;28;20126;-71
2023/09/22 09:57:25;;;;;;;1.73;1.00;;;;;;;;;;5910247;28;20372;-71
2023/09/22 10:00:19;;;;;;;2.30;0.88;;;;;;;;;;5910499;28;20496;-71
2023/09/22 10:03:12;;;;;;;1.17;0.75;;;;;;;;;;5909279;28;20053;-71
2023/09/22 10:06:06;;;;;;;0.50;0.50;;;;;;;;;;5910119;28;20128;-71
2023/09/22 10:08:57;;;;;;;1.17;0.47;;;;;;;;;;5910723;28;20055;-71
2023/09/22 10:11:50;;;;;;;1.17;0.32;;;;;;;;;;5909846;28;20364;-72
2023/09/22 10:14:46;;;;;;;1.70;0.50;;;;;;;;;;5892663;28;20047;-71
2023/09/22 10:17:38;;;;;;;2.42;0.70;;;;;;;;;;5892473;28;20418;-72
2023/09/22 10:20:45;;;;;;;1.52;0.85;;;;;;;;;;5892302;28;20460;-71
2023/09/22 10:23:35;;;;;;;6.07;1.23;;;;;;;;;;5910086;28;20052;-71
2023/09/22 10:26:26;;;;;;;10.70;1.35;;;;;;;;;;5910168;28;20399;-71
2023/09/22 10:29:35;;;;;;;1.67;0.55;;;;;;;;;;5910207;28;20079;-72
2023/09/22 10:32:26;;;;;;;0.63;0.55;;;;;;;;;;5909953;28;20051;-72
2023/09/22 10:35:46;;;;;;;4.10;0.85;;;;;;;;;;5909958;28;20470;-72
2023/09/22 10:39:07;;;;;;;8.30;0.95;;;;;;;;;;5890746;28;20072;-71
2023/09/22 10:42:02;;;;;;;1.13;0.63;;;;;;;;;;5904391;28;20048;-73
2023/09/22 10:45:03;;;;;;;10.70;0.90;;;;;;;;;;5914185;28;20044;-72
2023/09/22 10:47:55;;;;;;;1.58;0.75;;;;;;;;;;5914313;28;20048;-70
2023/09/22 10:50:50;;;;;;;2.17;1.02;;;;;;;;;;5914609;28;20186;-71
2023/09/22 10:53:53;;;;;;;0.98;0.65;;;;;;;;;;5896300;28;20048;-73
2023/09/22 10:56:44;;;;;;;3.83;0.50;;;;;;;;;;5914423;28;20440;-72
2023/09/22 10:59:36;;;;;;;4.90;0.85;;;;;;;;;;5913648;28;20399;-73
2023/09/22 11:02:27;;;;;;;3.83;1.05;;;;;;;;;;5913878;28;20041;-72
2023/09/22 11:05:19;;;;;;;0.93;0.60;;;;;;;;;;5914023;28;20130;-72
2023/09/22 11:08:13;;;;;;;1.67;0.20;;;;;;;;;;5896507;28;20049;-72
2023/09/22 11:11:05;;;;;;;1.13;0.75;;;;;;;;;;5913907;28;20049;-73
2023/09/22 11:13:57;;;;;;;1.05;0.60;;;;;;;;;;5914306;28;20048;-71
2023/09/22 11:16:48;;;;;;;1.35;0.55;;;;;;;;;;5913162;28;20048;-72
2023/09/22 11:19:57;;;;;;;4.53;0.93;;;;;;;;;;5896088;28;20052;-71
2023/09/22 11:22:49;;;;;;;14.90;1.35;;;;;;;;;;5913677;28;20044;-72
2023/09/22 11:25:39;;;;;;;3.10;1.17;;;;;;;;;;5911159;28;20041;-72
2023/09/22 11:28:31;;;;;;;1.15;0.50;;;;;;;;;;5901285;28;20045;-72
2023/09/22 11:31:22;;;;;;;0.20;0.20;;;;;;;;;;5913414;28;20044;-71
2023/09/22 11:34:13;;;;;;;2.15;0.70;;;;;;;;;;5913287;28;20044;-71
2023/09/22 11:37:05;;;;;;;2.30;0.43;;;;;;;;;;5895563;28;20044;-73
2023/09/22 11:39:56;;;;;;;4.38;0.57;;;;;;;;;;5913765;28;20131;-70
2023/09/22 11:42:47;;;;;;;1.05;0.50;;;;;;;;;;5913252;28;20052;-72
2023/09/22 11:45:38;;;;;;;0.50;0.35;;;;;;;;;;5895481;28;20041;-71
2023/09/22 11:48:29;;;;;;;3.30;0.88;;;;;;;;;;5913260;28;20048;-71
2023/09/22 11:51:20;;;;;;;0.68;0.65;;;;;;;;;;5912636;28;20041;-74
2023/09/22 11:54:16;;;;;;;0.43;0.40;;;;;;;;;;5912908;28;20045;-73
2023/09/22 11:57:08;;;;;;;1.80;0.68;;;;;;;;;;5895365;28;20055;-73
2023/09/22 11:59:59;;;;;;;4.55;0.93;;;;;;;;;;5913092;28;20040;-72
2023/09/22 12:02:50;;;;;;;0.63;0.47;;;;;;;;;;5912756;28;20042;-72
2023/09/22 12:05:41;;;;;;;0.63;0.45;;;;;;;;;;5912597;28;20059;-72
2023/09/22 12:08:32;;;;;;;3.88;0.75;;;;;;;;;;5911377;28;20387;-71
2023/09/22 12:11:23;;;;;;;1.77;0.40;;;;;;;;;;5911451;28;20456;-73
2023/09/22 12:14:14;;;;;;;1.38;0.57;;;;;;;;;;5911880;28;20048;-72
2023/09/22 12:17:05;;;;;;;3.95;0.63;;;;;;;;;;5911009;28;20048;-71
2023/09/22 12:19:55;;;;;;;3.65;0.40;;;;;;;;;;5910020;28;20106;-72
2023/09/22 12:22:46;;;;;;;2.75;1.10;;;;;;;;;;5909387;28;20045;-71
2023/09/22 12:25:37;;;;;;;1.02;0.57;;;;;;;;;;5909070;28;20167;-73
2023/09/22 12:28:28;;;;;;;38.25;1.25;;;;;;;;;;5909560;28;20043;-71
2023/09/22 12:31:20;;;;;;;0.65;0.40;;;;;;;;;;5909880;28;20067;-72
2023/09/22 12:34:11;;;;;;;0.30;0.22;;;;;;;;;;5892156;28;20082;-72
2023/09/22 12:37:02;;;;;;;1.52;0.70;;;;;;;;;;5910802;28;20495;-71
2023/09/22 12:39:53;;;;;;;3.78;0.80;;;;;;;;;;5911260;28;20162;-72
2023/09/22 12:42:43;;;;;;;0.70;0.38;;;;;;;;;;5894081;28;20124;-72
2023/09/22 12:45:35;;;;;;;2.45;0.63;;;;;;;;;;5911803;28;20053;-73
2023/09/22 12:48:26;;;;;;;0.32;0.32;;;;;;;;;;5911672;28;20045;-72
2023/09/22 12:51:16;;;;;;;1.65;0.63;;;;;;;;;;5911517;28;20044;-71
2023/09/22 12:54:07;;;;;;;4.20;0.88;;;;;;;;;;5911525;28;20404;-72
2023/09/22 12:56:59;;;;;;;5.47;0.70;;;;;;;;;;5911796;28;20117;-75
2023/09/22 12:59:50;;;;;;;2.90;0.57;;;;;;;;;;5911175;28;20041;-74
2023/09/22 13:02:41;;;;;;;1.00;0.35;;;;;;;;;;5911053;28;20116;-75
2023/09/22 13:05:32;;;;;;;1.85;0.52;;;;;;;;;;5910802;28;20052;-74
2023/09/22 13:08:25;;;;;;;0.20;0.20;;;;;;;;;;5911394;28;20048;-73
2023/09/22 13:11:16;;;;;;;1.92;0.85;;;;;;;;;;5911535;28;20403;-74
2023/09/22 13:14:07;;;;;;;0.35;0.30;;;;;;;;;;5893085;28;20048;-75
2023/09/22 13:16:58;;;;;;;0.52;0.45;;;;;;;;;;5911359;28;20049;-76
2023/09/22 13:19:49;;;;;;;0.80;0.70;;;;;;;;;;5911103;28;20148;-73
2023/09/22 13:22:41;;;;;;;3.72;0.85;;;;;;;;;;5910945;28;20067;-73
2023/09/22 13:25:39;;;;;;;0.65;0.60;;;;;;;;;;5911212;28;20044;-71
2023/09/22 13:28:30;;;;;;;1.45;0.60;;;;;;;;;;5893257;28;20051;-72
2023/09/22 13:31:22;;;;;;;1.30;0.50;;;;;;;;;;5892977;28;20491;-71
2023/09/22 13:34:13;;;;;;;0.50;0.40;;;;;;;;;;5910872;28;20044;-70
2023/09/22 13:37:04;;;;;;;3.60;0.50;;;;;;;;;;5910758;28;20055;-73
2023/09/22 13:39:55;;;;;;;16.65;0.77;;;;;;;;;;5893338;28;20048;-72
2023/09/22 13:42:46;;;;;;;2.00;0.77;;;;;;;;;;5906166;28;20456;-73
2023/09/22 13:45:39;;;;;;;0.90;0.70;;;;;;;;;;5906901;28;20492;-73
2023/09/22 13:48:30;;;;;;;4.88;1.00;;;;;;;;;;5902165;28;20056;-73
2023/09/22 13:51:20;;;;;;;0.38;0.38;;;;;;;;;;5910682;28;20053;-70
2023/09/22 13:54:11;;;;;;;0.57;0.57;;;;;;;;;;5910719;28;20041;-72
2023/09/22 13:57:04;;;;;;;6.15;0.98;;;;;;;;;;5910706;28;20055;-73
2023/09/22 13:59:55;;;;;;;0.80;0.57;;;;;;;;;;5910625;28;20040;-73
2023/09/22 14:02:46;;;;;;;1.27;0.50;;;;;;;;;;5910433;28;20048;-70
2023/09/22 14:05:39;;;;;;;3.22;1.42;;;;;;;;;;5910210;28;20044;-71
2023/09/22 14:08:30;;;;;;;0.45;0.30;;;;;;;;;;5892326;28;20037;-73
2023/09/22 14:11:21;;;;;;;2.25;0.80;;;;;;;;;;5910676;28;20060;-71
2023/09/22 14:14:11;;;;;;;2.13;0.82;;;;;;;;;;5892233;28;20048;-71
2023/09/22 14:17:02;;;;;;;0.68;0.50;;;;;;;;;;5915338;28;20396;-73
2023/09/22 14:19:53;;;;;;;1.23;0.85;;;;;;;;;;5915372;28;20049;-72
2023/09/22 14:22:44;;;;;;;2.33;0.80;;;;;;;;;;5914896;28;20148;-73
2023/09/22 14:25:36;;;;;;;1.25;0.80;;;;;;;;;;5915045;28;20476;-72
2023/09/22 14:28:28;;;;;;;0.90;0.60;;;;;;;;;;5914696;28;20041;-72
2023/09/22 14:31:19;;;;;;;3.78;0.65;;;;;;;;;;5897087;28;20119;-73
2023/09/22 14:34:10;;;;;;;0.30;0.30;;;;;;;;;;5914659;28;20135;-71
2023/09/22 14:37:02;;;;;;;1.05;0.30;;;;;;;;;;5913245;28;20056;-72
2023/09/22 14:39:56;;;;;;;0.85;0.47;;;;;;;;;;5897383;28;20052;-71
2023/09/22 14:42:48;;;;;;;0.70;0.60;;;;;;;;;;5897094;28;20041;-71
2023/09/22 14:45:39;;;;;;;2.90;0.77;;;;;;;;;;5914303;28;20114;-72
2023/09/22 14:48:30;;;;;;;4.80;0.98;;;;;;;;;;5913330;28;20178;-71
2023/09/22 14:51:21;;;;;;;1.40;0.45;;;;;;;;;;5914490;28;20415;-72
2023/09/22 14:54:12;;;;;;;0.75;0.52;;;;;;;;;;5914224;28;20052;-71
2023/09/22 14:57:03;;;;;;;1.20;0.38;;;;;;;;;;5913207;28;20052;-71
2023/09/22 14:59:54;;;;;;;0.52;0.52;;;;;;;;;;5914222;28;20040;-70
2023/09/22 15:02:46;;;;;;;4.70;0.82;;;;;;;;;;5914068;28;20387;-72
2023/09/22 15:05:37;;;;;;;11.40;0.88;;;;;;;;;;5913876;28;20431;-73
2023/09/22 15:08:29;;;;;;;2.38;0.93;;;;;;;;;;5913853;28;20468;-73
2023/09/22 15:11:20;;;;;;;0.85;0.63;;;;;;;;;;5913904;28;20040;-73
2023/09/22 15:14:10;;;;;;;0.75;0.55;;;;;;;;;;5913710;28;20040;-72
2023/09/22 15:17:07;;;;;;;1.52;0.75;;;;;;;;;;5913859;28;20040;-71
2023/09/22 15:19:58;;;;;;;1.05;0.85;;;;;;;;;;5914085;28;20048;-72
2023/09/22 15:22:49;;;;;;;0.95;0.63;;;;;;;;;;5913525;28;20064;-72
2023/09/22 15:25:48;;;;;;;1.45;0.77;;;;;;;;;;5913623;28;20044;-72
2023/09/22 15:28:39;;;;;;;1.50;0.77;;;;;;;;;;5895242;28;20056;-73
2023/09/22 15:31:30;;;;;;;0.98;0.52;;;;;;;;;;5913339;28;20123;-73
2023/09/22 15:34:22;;;;;;;1.90;0.82;;;;;;;;;;5912119;28;20067;-72
2023/09/22 15:37:13;;;;;;;3.00;1.27;;;;;;;;;;5913342;28;20044;-72
2023/09/22 15:40:07;;;;;;;5.82;0.80;;;;;;;;;;5913497;28;20048;-72
2023/09/22 15:42:58;;;;;;;4.15;0.77;;;;;;;;;;5913569;28;20106;-73
2023/09/22 15:45:49;;;;;;;1.88;1.08;;;;;;;;;;5913282;28;20040;-72
2023/09/22 15:48:41;;;;;;;8.35;1.52;;;;;;;;;;5913220;28;20051;-72
2023/09/22 15:51:33;;;;;;;10.43;0.90;;;;;;;;;;5913107;28;20045;-73
2023/09/22 15:54:24;;;;;;;1.77;1.17;;;;;;;;;;5911686;28;20048;-73
2023/09/22 15:57:17;;;;;;;2.58;0.75;;;;;;;;;;5912840;28;20597;-73
2023/09/22 16:00:08;;;;;;;16.75;1.85;;;;;;;;;;5912381;28;20047;-72
2023/09/22 16:02:59;;;;;;;4.60;0.73;;;;;;;;;;5912693;28;20048;-72
2023/09/22 16:05:50;;;;;;;23.42;1.35;;;;;;;;;;5912970;28;20108;-72
2023/09/22 16:08:41;;;;;;;5.35;1.23;;;;;;;;;;5912551;28;20130;-72
2023/09/22 16:11:32;;;;;;;2.28;1.20;;;;;;;;;;5894828;28;20376;-73
2023/09/22 16:14:23;;;;;;;1.52;1.05;;;;;;;;;;5912299;28;20045;-73
2023/09/22 16:17:14;;;;;;;2.33;1.08;;;;;;;;;;5878070;28;20040;-73
2023/09/22 16:20:06;;;;;;;1.35;0.93;;;;;;;;;;5912444;28;20471;-72
2023/09/22 16:22:57;;;;;;;0.75;0.75;;;;;;;;;;5912779;28;20060;-73
2023/09/22 16:25:48;;;;;;;1.25;0.65;;;;;;;;;;5912452;28;20116;-73
2023/09/22 16:28:44;;;;;;;23.33;1.83;;;;;;;;;;5895054;28;20044;-73
2023/09/22 16:31:35;;;;;;;2.25;1.23;;;;;;;;;;5894739;28;20048;-72
2023/09/22 16:34:26;;;;;;;3.75;1.95;;;;;;;;;;5894284;28;20522;-72
2023/09/22 16:37:20;;;;;;;1.92;1.50;;;;;;;;;;5911963;28;20048;-72
2023/09/22 16:40:11;;;;;;;3.92;1.60;;;;;;;;;;5893114;28;20045;-72
2023/09/22 16:43:02;;;;;;;3.40;2.13;;;;;;;;;;5894114;28;20045;-73
2023/09/22 16:45:53;;;;;;;4.22;1.30;;;;;;;;;;5912665;28;20444;-72
2023/09/22 16:48:46;;;;;;;4.53;1.70;;;;;;;;;;5894486;28;20504;-72
2023/09/22 16:51:37;;;;;;;6.43;1.27;;;;;;;;;;5891702;28;20045;-73
2023/09/22 16:54:30;;;;;;;7.93;2.47;;;;;;;;;;5911531;28;20432;-72
2023/09/22 16:57:20;;;;;;;2.78;1.80;;;;;;;;;;5893282;28;20044;-72
2023/09/22 17:00:15;;;;;;;2.45;1.80;;;;;;;;;;5911502;28;20045;-73
2023/09/22 17:03:06;;;;;;;1.70;1.42;;;;;;;;;;5910060;28;20071;-73
2023/09/22 17:05:57;;;;;;;2.55;1.10;;;;;;;;;;5911881;28;20064;-72
2023/09/22 17:08:48;;;;;;;1.67;1.15;;;;;;;;;;5911448;28;20048;-72
2023/09/22 17:11:39;;;;;;;9.10;1.42;;;;;;;;;;5911368;28;20040;-72